Time;durP1;ratioP1;P1;durP2;ratioP2;P2;SDS_P1;SDS_P2;PMS_P1;PMS_P2;Temp;Humidity;BMP_temperature;BMP_pressure;BME280_temperature;BME280_humidity;BME280_pressure;Samples;Min_cycle;Max_cycle;Signal;HPM_P1;HPM_P2
2021/07/08 00:01:00;;;;;;;;;;;;;;;21.30;56.95;101506.59;2209332;39;113837;-56
2021/07/08 00:02:32;;;;;;;;;;;;;;;21.29;56.69;101510.53;2208966;39;113920;-56
2021/07/08 00:04:04;;;;;;;;;;;;;;;21.29;56.65;101505.75;2210775;39;113590;-56
2021/07/08 00:05:38;;;;;;;;;;;;;;;21.29;56.56;101504.91;2211198;39;114135;-56
2021/07/08 00:07:10;;;;;;;;;;;;;;;21.27;56.83;101504.34;2211205;39;113709;-56
2021/07/08 00:08:42;;;;;;;;;;;;;;;21.27;56.52;101510.81;2216049;39;113781;-56
2021/07/08 00:10:16;;;;;;;;;;;;;;;21.26;56.75;101505.47;2211889;39;113921;-57
2021/07/08 00:11:48;;;;;;;;;;;;;;;21.25;56.76;101506.63;2210182;39;114040;-56
2021/07/08 00:13:21;;;;;;;;;;;;;;;21.24;56.99;101510.59;2209980;39;113792;-57
2021/07/08 00:14:53;;;;;;;;;;;;;;;21.26;56.86;101508.28;2207327;39;113904;-56
2021/07/08 00:16:25;;;;;;;;;;;;;;;21.23;56.98;101506.94;2211221;39;114059;-56
2021/07/08 00:17:57;;;;;;;;;;;;;;;21.29;56.82;101507.72;2215737;39;114102;-56
2021/07/08 00:19:29;;;;;;;;;;;;;;;21.25;57.07;101517.88;2213461;39;114229;-56
2021/07/08 00:21:01;;;;;;;;;;;;;;;21.23;56.91;101514.53;2212528;39;115002;-56
2021/07/08 00:22:33;;;;;;;;;;;;;;;21.26;56.98;101517.56;2206008;39;114973;-56
2021/07/08 00:24:06;;;;;;;;;;;;;;;21.26;56.85;101511.09;2208780;39;115561;-56
2021/07/08 00:25:38;;;;;;;;;;;;;;;21.24;56.84;101510.59;2204376;39;116046;-56
2021/07/08 00:27:10;;;;;;;;;;;;;;;21.24;57.11;101510.59;2214667;39;115491;-55
2021/07/08 00:28:41;;;;;;;;;;;;;;;21.24;56.60;101508.59;2210181;39;114839;-56
2021/07/08 00:30:14;;;;;;;;;;;;;;;21.23;57.08;101497.66;2201691;39;114722;-56
2021/07/08 00:31:46;;;;;;;;;;;;;;;21.22;56.95;101507.22;2211528;39;114778;-56
2021/07/08 00:33:18;;;;;;;;;;;;;;;21.22;56.97;101502.44;2210446;39;114852;-56
2021/07/08 00:34:50;;;;;;;;;;;;;;;21.24;57.14;101502.16;2206848;39;115020;-56
2021/07/08 00:36:22;;;;;;;;;;;;;;;21.24;57.05;101505.81;2211072;39;114931;-56
2021/07/08 00:37:54;;;;;;;;;;;;;;;21.23;57.07;101508.91;2211234;39;114814;-56
2021/07/08 00:39:27;;;;;;;;;;;;;;;21.22;56.74;101505.25;2211613;39;115186;-56
2021/07/08 00:41:00;;;;;;;;;;;;;;;21.23;57.26;101504.13;2213904;39;114616;-56
2021/07/08 00:42:31;;;;;;;;;;;;;;;21.21;57.03;101506.38;2210043;39;115496;-56
2021/07/08 00:44:04;;;;;;;;;;;;;;;21.23;56.94;101506.09;2210786;39;115526;-56
2021/07/08 00:45:36;;;;;;;;;;;;;;;21.23;57.04;101503.28;2209105;39;115718;-56
2021/07/08 00:47:08;;;;;;;;;;;;;;;21.22;56.95;101504.41;2215128;39;115846;-56
2021/07/08 00:48:40;;;;;;;;;;;;;;;21.21;57.12;101506.38;2213386;39;115541;-56
2021/07/08 00:50:13;;;;;;;;;;;;;;;21.20;57.09;101498.28;2211151;39;115682;-56
2021/07/08 00:51:45;;;;;;;;;;;;;;;21.22;56.96;101498.78;2207673;39;115481;-56
2021/07/08 00:53:18;;;;;;;;;;;;;;;21.21;57.19;101491.50;2211772;39;115751;-56
2021/07/08 00:54:50;;;;;;;;;;;;;;;21.22;57.25;101495.97;2209274;39;115629;-56
2021/07/08 00:56:23;;;;;;;;;;;;;;;21.19;57.04;101500.22;2211330;39;115783;-56
2021/07/08 00:57:55;;;;;;;;;;;;;;;21.20;57.05;101496.28;2208969;39;115446;-56
2021/07/08 00:59:27;;;;;;;;;;;;;;;21.20;57.46;101489.84;2208344;39;115583;-56
2021/07/08 01:00:59;;;;;;;;;;;;;;;21.21;57.42;101497.13;2210871;39;116043;-56
2021/07/08 01:02:31;;;;;;;;;;;;;;;21.20;57.30;101501.06;2213558;39;115518;-56
2021/07/08 01:04:03;;;;;;;;;;;;;;;21.19;57.49;101507.81;2211024;39;113714;-56
2021/07/08 01:05:37;;;;;;;;;;;;;;;21.20;57.35;101506.69;2210405;39;113806;-56
2021/07/08 01:07:10;;;;;;;;;;;;;;;21.18;57.21;101504.19;2215025;39;113646;-56
2021/07/08 01:08:42;;;;;;;;;;;;;;;21.19;57.46;101507.81;2213208;39;114183;-56
2021/07/08 01:10:14;;;;;;;;;;;;;;;21.18;57.35;101514.56;2211869;39;113582;-56
2021/07/08 01:11:47;;;;;;;;;;;;;;;21.19;57.43;101507.81;2210926;39;113999;-56
2021/07/08 01:13:20;;;;;;;;;;;;;;;21.17;57.57;101510.94;2210854;39;113913;-56
2021/07/08 01:14:52;;;;;;;;;;;;;;;21.17;57.60;101510.09;2211590;39;113647;-55
2021/07/08 01:16:26;;;;;;;;;;;;;;;21.18;57.51;101512.59;2207398;39;113654;-56
2021/07/08 01:17:58;;;;;;;;;;;;;;;21.18;57.36;101515.41;2201491;39;113954;-56
2021/07/08 01:19:30;;;;;;;;;;;;;;;21.20;57.53;101520.75;2208847;39;114249;-56
2021/07/08 01:21:05;;;;;;;;;;;;;;;21.20;57.58;101517.94;2207987;39;114079;-59
2021/07/08 01:22:39;;;;;;;;;;;;;;;21.19;57.25;101514.28;2204690;39;113622;-56
2021/07/08 01:24:11;;;;;;;;;;;;;;;21.18;57.45;101517.38;2201045;39;113772;-55
2021/07/08 01:25:43;;;;;;;;;;;;;;;21.18;57.24;101517.38;2209956;39;113911;-56
2021/07/08 01:27:15;;;;;;;;;;;;;;;21.17;57.35;101522.16;2202904;39;114752;-56
2021/07/08 01:28:48;;;;;;;;;;;;;;;21.17;57.52;101515.72;2213112;39;114641;-57
2021/07/08 01:30:20;;;;;;;;;;;;;;;21.18;57.39;101511.75;2211351;39;114802;-56
2021/07/08 01:31:52;;;;;;;;;;;;;;;21.18;57.33;101509.81;2211540;39;114909;-56
2021/07/08 01:33:24;;;;;;;;;;;;;;;21.18;57.41;101511.75;2211349;39;114876;-56
2021/07/08 01:34:56;;;;;;;;;;;;;;;21.17;57.63;101512.91;2211667;39;114785;-56
2021/07/08 01:36:28;;;;;;;;;;;;;;;21.17;57.40;101515.72;2211475;39;114717;-56
2021/07/08 01:38:00;;;;;;;;;;;;;;;21.17;57.40;101510.09;2210377;39;115011;-56
2021/07/08 01:39:32;;;;;;;;;;;;;;;21.19;57.34;101514.28;2206401;39;114885;-56
2021/07/08 01:41:04;;;;;;;;;;;;;;;21.18;57.66;101521.03;2211364;39;114065;-56
2021/07/08 01:42:37;;;;;;;;;;;;;;;21.19;57.49;101519.91;2211000;39;115472;-56
2021/07/08 01:44:10;;;;;;;;;;;;;;;21.17;57.36;101522.16;2211081;39;114001;-56
2021/07/08 01:45:43;;;;;;;;;;;;;;;21.18;57.51;101525.81;2211467;39;115226;-56
2021/07/08 01:47:14;;;;;;;;;;;;;;;21.21;57.64;101519.63;2213005;39;114767;-57
2021/07/08 01:48:47;;;;;;;;;;;;;;;21.21;57.34;101522.44;2210966;39;115602;-56
2021/07/08 01:50:19;;;;;;;;;;;;;;;21.19;57.66;101527.50;2210584;39;114885;-56
2021/07/08 01:51:51;;;;;;;;;;;;;;;21.19;57.60;101525.53;2215265;39;115408;-56
2021/07/08 01:53:23;;;;;;;;;;;;;;;21.18;57.71;101529.47;2210576;39;114306;-55
2021/07/08 01:54:55;;;;;;;;;;;;;;;21.18;57.53;101525.81;2208026;39;115414;-56
2021/07/08 01:56:27;;;;;;;;;;;;;;;21.18;57.77;101523.00;2208978;39;115548;-56
2021/07/08 01:58:01;;;;;;;;;;;;;;;21.18;57.67;101531.44;2209730;39;115494;-56
2021/07/08 01:59:33;;;;;;;;;;;;;;;21.17;57.77;101524.97;2210888;39;115538;-56
2021/07/08 02:01:05;;;;;;;;;;;;;;;21.16;57.58;101528.94;2211368;39;115945;-56
2021/07/08 02:02:37;;;;;;;;;;;;;;;21.15;57.82;101527.25;2210969;39;116011;-57
2021/07/08 02:04:09;;;;;;;;;;;;;;;21.17;57.50;101530.59;2210934;39;115830;-57
2021/07/08 02:05:41;;;;;;;;;;;;;;;21.16;57.68;101536.53;2210979;39;115492;-56
2021/07/08 02:07:13;;;;;;;;;;;;;;;21.18;57.64;101537.91;2211264;39;115421;-56
2021/07/08 02:08:45;;;;;;;;;;;;;;;21.16;57.46;101528.94;2213823;39;116125;-56
2021/07/08 02:10:18;;;;;;;;;;;;;;;21.18;57.43;101534.25;2211799;39;113930;-56
2021/07/08 02:11:50;;;;;;;;;;;;;;;21.15;57.79;101535.69;2210884;39;114504;-56
2021/07/08 02:13:22;;;;;;;;;;;;;;;21.16;57.40;101528.09;2206431;39;113777;-57
2021/07/08 02:14:54;;;;;;;;;;;;;;;21.16;57.59;101536.53;2207572;39;113670;-57
2021/07/08 02:16:26;;;;;;;;;;;;;;;21.16;57.92;101528.94;2211273;39;114171;-56
2021/07/08 02:17:58;;;;;;;;;;;;;;;21.13;57.80;101521.09;2203528;39;113649;-56
2021/07/08 02:19:30;;;;;;;;;;;;;;;21.13;57.62;101532.34;2206222;39;113862;-57
2021/07/08 02:21:02;;;;;;;;;;;;;;;21.15;57.51;101526.44;2211419;39;113804;-57
2021/07/08 02:22:35;;;;;;;;;;;;;;;21.16;57.45;101526.13;2204769;39;114192;-56
2021/07/08 02:24:07;;;;;;;;;;;;;;;21.15;57.69;101530.06;2208918;39;113817;-56
2021/07/08 02:25:39;;;;;;;;;;;;;;;21.15;57.67;101530.06;2211723;39;113976;-56
2021/07/08 02:27:10;;;;;;;;;;;;;;;21.14;57.56;101534.00;2211659;39;113765;-57
2021/07/08 02:28:42;;;;;;;;;;;;;;;21.14;57.78;101527.56;2211200;39;113746;-56
2021/07/08 02:30:16;;;;;;;;;;;;;;;21.13;57.51;101529.53;2216160;39;113571;-57
2021/07/08 02:31:49;;;;;;;;;;;;;;;21.14;57.48;101527.56;2211925;39;114781;-56
2021/07/08 02:33:21;;;;;;;;;;;;;;;21.13;57.89;101523.91;2211975;39;114780;-57
2021/07/08 02:34:54;;;;;;;;;;;;;;;21.13;57.89;101532.34;2204920;39;114816;-57
2021/07/08 02:36:26;;;;;;;;;;;;;;;21.13;57.74;101534.31;2208562;39;114888;-56
2021/07/08 02:37:58;;;;;;;;;;;;;;;21.12;58.00;101527.00;2211813;39;114316;-56
2021/07/08 02:39:30;;;;;;;;;;;;;;;21.11;57.94;101528.97;2210890;39;114772;-56
2021/07/08 02:41:02;;;;;;;;;;;;;;;21.10;57.72;101529.25;2209339;39;113896;-57
2021/07/08 02:42:34;;;;;;;;;;;;;;;21.09;58.01;101539.66;2211924;39;114070;-55
2021/07/08 02:44:06;;;;;;;;;;;;;;;21.11;57.58;101536.56;2211875;39;114909;-56
2021/07/08 02:45:39;;;;;;;;;;;;;;;21.12;57.63;101535.44;2212404;39;114891;-56
2021/07/08 02:47:11;;;;;;;;;;;;;;;21.12;57.81;101535.44;2210661;39;114779;-56
2021/07/08 02:48:43;;;;;;;;;;;;;;;21.12;57.95;101532.63;2211562;39;115042;-56
2021/07/08 02:50:15;;;;;;;;;;;;;;;21.13;58.09;101535.16;2212119;39;115381;-56
2021/07/08 02:51:47;;;;;;;;;;;;;;;21.12;57.98;101532.63;2213035;39;114886;-55
2021/07/08 02:53:19;;;;;;;;;;;;;;;21.12;57.79;101535.44;2206708;39;114517;-56
2021/07/08 02:54:51;;;;;;;;;;;;;;;21.13;58.11;101537.13;2207505;39;115505;-55
2021/07/08 02:56:23;;;;;;;;;;;;;;;21.14;58.18;101538.78;2208518;39;115582;-56
2021/07/08 02:57:55;;;;;;;;;;;;;;;21.11;57.90;101539.38;2209999;39;115479;-57
2021/07/08 02:59:30;;;;;;;;;;;;;;;21.14;58.23;101536.81;2210393;39;115499;-56
2021/07/08 03:01:03;;;;;;;;;;;;;;;21.13;57.80;101539.91;2211099;39;115819;-56
2021/07/08 03:02:36;;;;;;;;;;;;;;;21.12;58.13;101538.25;2207193;39;115856;-56
2021/07/08 03:04:09;;;;;;;;;;;;;;;21.13;58.01;101543.56;2211151;39;115556;-56
2021/07/08 03:05:41;;;;;;;;;;;;;;;21.13;58.19;101543.56;2210527;39;115566;-56
2021/07/08 03:07:14;;;;;;;;;;;;;;;21.11;58.18;101543.03;2208456;39;115525;-56
2021/07/08 03:08:46;;;;;;;;;;;;;;;21.10;58.00;101540.50;2210914;39;114585;-56
2021/07/08 03:10:19;;;;;;;;;;;;;;;21.09;58.13;101545.28;2210028;39;115491;-56
2021/07/08 03:11:51;;;;;;;;;;;;;;;21.08;58.44;101537.13;2211999;39;115507;-55
2021/07/08 03:13:23;;;;;;;;;;;;;;;21.08;58.14;101542.75;2211499;39;115522;-57
2021/07/08 03:14:55;;;;;;;;;;;;;;;21.11;58.18;101548.63;2214384;39;116331;-56
2021/07/08 03:16:27;;;;;;;;;;;;;;;21.10;58.40;101548.94;2210774;39;114082;-56
2021/07/08 03:18:00;;;;;;;;;;;;;;;21.08;58.06;101543.59;2210138;39;113785;-56
2021/07/08 03:19:32;;;;;;;;;;;;;;;21.10;58.49;101546.97;2210423;39;113757;-56
2021/07/08 03:21:04;;;;;;;;;;;;;;;21.09;58.71;101544.44;2212517;39;113548;-56
2021/07/08 03:22:36;;;;;;;;;;;;;;;21.09;58.18;101545.28;2210967;39;113930;-56
2021/07/08 03:24:08;;;;;;;;;;;;;;;21.10;58.65;101546.97;2215140;39;113949;-56
2021/07/08 03:25:41;;;;;;;;;;;;;;;21.07;58.40;101541.94;2213449;39;113929;-56
2021/07/08 03:27:13;;;;;;;;;;;;;;;21.06;58.62;101545.88;2211453;39;113766;-57
2021/07/08 03:28:45;;;;;;;;;;;;;;;21.11;58.67;101545.00;2211464;39;113805;-55
2021/07/08 03:30:19;;;;;;;;;;;;;;;21.08;58.51;101540.78;2211552;39;113759;-56
2021/07/08 03:31:51;;;;;;;;;;;;;;;21.08;58.74;101545.56;2211821;39;113752;-56
2021/07/08 03:33:23;;;;;;;;;;;;;;;21.07;58.52;101547.56;2211598;39;113665;-56
2021/07/08 03:34:55;;;;;;;;;;;;;;;21.07;58.75;101549.53;2211416;39;113716;-56
2021/07/08 03:36:27;;;;;;;;;;;;;;;21.06;58.57;101547.84;2209902;39;113716;-56
2021/07/08 03:37:59;;;;;;;;;;;;;;;21.07;58.73;101544.75;2208195;39;114986;-56
2021/07/08 03:39:31;;;;;;;;;;;;;;;21.07;58.85;101550.38;2210219;39;114775;-56
2021/07/08 03:41:03;;;;;;;;;;;;;;;21.06;58.89;101551.50;2211666;39;115644;-56
2021/07/08 03:42:36;;;;;;;;;;;;;;;21.07;58.86;101555.16;2208404;39;114708;-56
2021/07/08 03:44:08;;;;;;;;;;;;;;;21.08;58.82;101546.41;2211265;39;113921;-57
2021/07/08 03:45:40;;;;;;;;;;;;;;;21.07;58.75;101555.16;2206973;39;114846;-56
2021/07/08 03:47:12;;;;;;;;;;;;;;;21.06;58.78;101551.50;2211699;39;114887;-56
2021/07/08 03:48:44;;;;;;;;;;;;;;;21.05;59.03;101547.00;2211781;39;114754;-56
2021/07/08 03:50:16;;;;;;;;;;;;;;;21.05;58.83;101558.25;2210912;39;115212;-57
2021/07/08 03:51:48;;;;;;;;;;;;;;;21.05;58.76;101558.25;2211320;39;115113;-56
2021/07/08 03:53:20;;;;;;;;;;;;;;;21.05;58.64;101549.81;2211900;39;114787;-57
2021/07/08 03:54:53;;;;;;;;;;;;;;;21.05;58.72;101548.97;2211708;39;115428;-56
2021/07/08 03:56:25;;;;;;;;;;;;;;;21.05;58.98;101543.34;2212581;39;115306;-56
2021/07/08 03:57:57;;;;;;;;;;;;;;;21.05;58.85;101549.81;2214166;39;113858;-56
2021/07/08 03:59:28;;;;;;;;;;;;;;;21.05;59.00;101548.97;2211735;39;115246;-56
2021/07/08 04:01:00;;;;;;;;;;;;;;;21.04;58.80;101553.75;2211613;39;115888;-56
2021/07/08 04:02:33;;;;;;;;;;;;;;;21.04;58.75;101550.09;2212383;39;115627;-56
2021/07/08 04:04:05;;;;;;;;;;;;;;;21.08;58.67;101548.38;2211119;39;116093;-57
2021/07/08 04:05:37;;;;;;;;;;;;;;;21.04;59.11;101550.09;2209542;39;115175;-56
2021/07/08 04:07:09;;;;;;;;;;;;;;;21.03;58.78;101546.47;2209091;39;115548;-56
2021/07/08 04:08:41;;;;;;;;;;;;;;;21.04;59.10;101558.53;2211681;39;115693;-56
2021/07/08 04:10:13;;;;;;;;;;;;;;;21.02;59.03;101552.38;2211390;39;116086;-56
2021/07/08 04:11:45;;;;;;;;;;;;;;;21.03;59.48;101554.06;2212017;39;115466;-56
2021/07/08 04:13:18;;;;;;;;;;;;;;;21.04;59.00;101562.19;2211915;39;115552;-56
2021/07/08 04:14:50;;;;;;;;;;;;;;;21.04;59.42;101561.34;2210449;39;116215;-57
2021/07/08 04:16:22;;;;;;;;;;;;;;;21.03;59.31;101562.50;2208816;39;115967;-56
2021/07/08 04:17:54;;;;;;;;;;;;;;;21.03;59.43;101562.50;2210316;39;115642;-56
2021/07/08 04:19:27;;;;;;;;;;;;;;;21.04;59.58;101570.63;2214141;39;115459;-56
2021/07/08 04:20:59;;;;;;;;;;;;;;;21.02;59.05;101563.63;2210715;39;113728;-56
2021/07/08 04:22:30;;;;;;;;;;;;;;;21.03;59.24;101570.94;2206912;39;113779;-56
2021/07/08 04:24:02;;;;;;;;;;;;;;;21.03;59.47;101573.75;2210370;39;113834;-56
2021/07/08 04:25:35;;;;;;;;;;;;;;;21.02;59.41;101577.69;2211861;39;113748;-59
2021/07/08 04:27:06;;;;;;;;;;;;;;;21.02;59.34;101580.50;2207645;39;113614;-56
2021/07/08 04:28:39;;;;;;;;;;;;;;;21.02;59.34;101572.06;2210855;39;113663;-56
2021/07/08 04:30:13;;;;;;;;;;;;;;;21.01;59.43;101578.81;2211652;39;113965;-56
2021/07/08 04:31:45;;;;;;;;;;;;;;;21.00;59.14;101577.13;2210731;39;113790;-56
2021/07/08 04:33:17;;;;;;;;;;;;;;;21.01;59.13;101578.81;2211387;39;113758;-56
2021/07/08 04:34:49;;;;;;;;;;;;;;;21.01;59.61;101576.84;2210766;39;114829;-55
2021/07/08 04:36:21;;;;;;;;;;;;;;;21.01;59.58;101576.84;2211502;39;113644;-57
2021/07/08 04:37:53;;;;;;;;;;;;;;;21.00;59.14;101588.34;2208219;39;113799;-56
2021/07/08 04:39:25;;;;;;;;;;;;;;;21.00;59.23;101589.19;2211627;39;114082;-56
2021/07/08 04:40:57;;;;;;;;;;;;;;;21.00;59.58;101592.00;2209795;39;113631;-56
2021/07/08 04:42:29;;;;;;;;;;;;;;;21.00;59.33;101596.78;2210330;39;113843;-56
2021/07/08 04:44:01;;;;;;;;;;;;;;;21.02;59.08;101601.00;2208938;39;114960;-56
2021/07/08 04:45:33;;;;;;;;;;;;;;;21.00;59.14;101596.78;2208403;39;114811;-56
2021/07/08 04:47:05;;;;;;;;;;;;;;;21.00;59.43;101593.97;2214068;39;113773;-56
2021/07/08 04:48:37;;;;;;;;;;;;;;;20.98;59.50;101599.06;2209743;39;114935;-56
2021/07/08 04:50:10;;;;;;;;;;;;;;;20.98;59.44;101593.47;2211825;39;114772;-56
2021/07/08 04:51:42;;;;;;;;;;;;;;;20.99;59.44;101595.09;2211184;39;114999;-57
2021/07/08 04:53:15;;;;;;;;;;;;;;;20.97;59.07;101601.03;2211812;39;114892;-55
2021/07/08 04:54:47;;;;;;;;;;;;;;;20.99;59.36;101604.38;2210359;39;115415;-57
2021/07/08 04:56:19;;;;;;;;;;;;;;;20.99;59.04;101603.53;2210839;39;115323;-57
2021/07/08 04:57:52;;;;;;;;;;;;;;;20.97;59.17;101600.19;2211645;39;113832;-57
2021/07/08 04:59:26;;;;;;;;;;;;;;;20.98;59.37;101610.31;2211581;39;114750;-56
2021/07/08 05:00:58;;;;;;;;;;;;;;;20.96;59.34;101604.97;2210824;39;113850;-56
2021/07/08 05:02:30;;;;;;;;;;;;;;;20.96;59.57;101612.56;2205293;39;114874;-57
2021/07/08 05:04:02;;;;;;;;;;;;;;;20.96;59.85;101607.78;2214151;39;114961;-57
2021/07/08 05:05:34;;;;;;;;;;;;;;;20.97;60.10;101608.63;2210805;39;114812;-56
2021/07/08 05:07:06;;;;;;;;;;;;;;;20.99;60.21;101610.00;2215128;39;114585;-56
2021/07/08 05:08:40;;;;;;;;;;;;;;;21.00;60.33;101613.66;2213082;39;115601;-56
2021/07/08 05:10:13;;;;;;;;;;;;;;;21.02;60.62;101620.66;2211755;39;115584;-57
2021/07/08 05:11:45;;;;;;;;;;;;;;;21.04;60.94;101611.91;2205056;39;115421;-57
2021/07/08 05:13:17;;;;;;;;;;;;;;;21.06;61.31;101618.09;2208917;39;115479;-56
2021/07/08 05:14:49;;;;;;;;;;;;;;;21.08;61.40;101613.84;2207923;39;115659;-56
2021/07/08 05:16:21;;;;;;;;;;;;;;;21.10;61.74;101616.38;2209325;39;114683;-57
2021/07/08 05:17:53;;;;;;;;;;;;;;;21.12;61.99;101617.72;2210857;39;115907;-56
2021/07/08 05:19:27;;;;;;;;;;;;;;;21.16;62.08;101618.03;2211480;39;115543;-56
2021/07/08 05:21:00;;;;;;;;;;;;;;;21.17;62.59;101612.09;2211826;39;115455;-57
2021/07/08 05:22:33;;;;;;;;;;;;;;;21.21;62.63;101618.78;2207257;39;116798;-56
2021/07/08 05:24:05;;;;;;;;;;;;;;;21.24;62.90;101611.75;2208364;39;115477;-56
2021/07/08 05:25:37;;;;;;;;;;;;;;;21.28;63.01;101621.28;2213184;39;115465;-56
2021/07/08 05:27:12;;;;;;;;;;;;;;;21.32;62.95;101627.13;2211198;39;113596;-58
2021/07/08 05:28:44;;;;;;;;;;;;;;;21.36;64.02;101622.59;2201010;39;113871;-56
2021/07/08 05:30:16;;;;;;;;;;;;;;;21.40;64.01;101618.88;2213749;39;113847;-56
2021/07/08 05:31:49;;;;;;;;;;;;;;;21.44;64.23;101627.56;2213593;39;113690;-56
2021/07/08 05:33:21;;;;;;;;;;;;;;;21.47;64.03;101626.97;2210314;39;113685;-56
2021/07/08 05:34:52;;;;;;;;;;;;;;;21.50;63.73;101621.59;2211243;39;113855;-56
2021/07/08 05:36:24;;;;;;;;;;;;;;;21.54;63.22;101630.25;2210700;39;114025;-57
2021/07/08 05:37:56;;;;;;;;;;;;;;;21.58;63.24;101634.13;2210811;39;113815;-55
2021/07/08 05:39:28;;;;;;;;;;;;;;;21.60;63.01;101635.53;2211273;39;113992;-56
2021/07/08 05:41:00;;;;;;;;;;;;;;;21.65;62.85;101629.00;2211555;39;113620;-56
2021/07/08 05:42:32;;;;;;;;;;;;;;;21.68;63.01;101637.69;2211761;39;113661;-56
2021/07/08 05:44:04;;;;;;;;;;;;;;;21.71;62.73;101634.25;2211093;39;113862;-56
2021/07/08 05:45:37;;;;;;;;;;;;;;;21.74;62.53;101635.66;2211485;39;113751;-56
2021/07/08 05:47:09;;;;;;;;;;;;;;;21.78;62.03;101641.50;2214604;39;113928;-56
2021/07/08 05:48:57;;;;;;;;;;;;;;;21.82;61.79;101640.59;2210946;39;114805;-56
2021/07/08 05:50:29;;;;;;;;;;;;;;;21.84;62.02;101637.50;2205668;39;113777;-56
2021/07/08 05:52:01;;;;;;;;;;;;;;;21.86;61.56;101643.66;2209965;39;114798;-57
2021/07/08 05:53:33;;;;;;;;;;;;;;;21.89;61.61;101643.91;2211268;39;114792;-56
2021/07/08 05:55:05;;;;;;;;;;;;;;;21.92;61.26;101650.91;2211682;39;113835;-55
2021/07/08 05:56:37;;;;;;;;;;;;;;;21.94;61.18;101645.84;2211237;39;114301;-56
2021/07/08 05:58:09;;;;;;;;;;;;;;;21.96;60.86;101647.22;2211004;39;114908;-56
2021/07/08 05:59:41;;;;;;;;;;;;;;;21.99;60.78;101657.00;2211291;39;114802;-56
2021/07/08 06:01:13;;;;;;;;;;;;;;;22.00;60.77;101662.34;2211026;39;115251;-56
2021/07/08 06:02:45;;;;;;;;;;;;;;;22.03;60.63;101663.75;2211703;39;114919;-56
2021/07/08 06:04:17;;;;;;;;;;;;;;;22.04;60.64;101669.03;2210649;39;115210;-55
2021/07/08 06:05:50;;;;;;;;;;;;;;;22.06;60.97;101663.13;2209607;39;114910;-56
2021/07/08 06:07:22;;;;;;;;;;;;;;;22.08;60.74;101663.66;2211222;39;114766;-56
2021/07/08 06:08:58;;;;;;;;;;;;;;;22.11;60.58;101663.06;2213677;39;114803;-56
2021/07/08 06:10:30;;;;;;;;;;;;;;;22.13;60.73;101672.03;2211653;39;115393;-56
2021/07/08 06:12:02;;;;;;;;;;;;;;;22.14;60.63;101668.06;2211628;39;115505;-56
2021/07/08 06:13:34;;;;;;;;;;;;;;;22.14;60.19;101671.75;2209739;39;115624;-56
2021/07/08 06:15:06;;;;;;;;;;;;;;;22.15;60.32;101670.59;2211304;39;115552;-56
2021/07/08 06:16:38;;;;;;;;;;;;;;;22.17;59.98;101673.94;2211373;39;115478;-56
2021/07/08 06:18:10;;;;;;;;;;;;;;;22.19;59.85;101673.66;2210747;39;116641;-56
2021/07/08 06:19:42;;;;;;;;;;;;;;;22.20;59.81;101677.31;2210381;39;116055;-56
2021/07/08 06:21:14;;;;;;;;;;;;;;;22.22;59.58;101672.19;2211218;39;115650;-56
2021/07/08 06:22:46;;;;;;;;;;;;;;;22.23;59.81;101674.72;2211541;39;115819;-56
2021/07/08 06:24:19;;;;;;;;;;;;;;;22.24;60.19;101678.38;2211369;39;114918;-56
2021/07/08 06:25:52;;;;;;;;;;;;;;;22.26;59.91;101681.72;2211124;39;115439;-56
2021/07/08 06:27:23;;;;;;;;;;;;;;;22.26;59.78;101682.53;2211441;39;114645;-56
2021/07/08 06:28:55;;;;;;;;;;;;;;;22.27;59.46;101683.38;2212343;39;116077;-56
2021/07/08 06:30:27;;;;;;;;;;;;;;;22.29;59.06;101690.41;2208399;39;115468;-56
2021/07/08 06:31:59;;;;;;;;;;;;;;;22.30;59.06;101686.47;2210913;39;115508;-56
2021/07/08 06:33:31;;;;;;;;;;;;;;;22.31;58.97;101687.25;2208050;39;113855;-56
2021/07/08 06:35:06;;;;;;;;;;;;;;;22.32;59.06;101692.59;2211469;39;113865;-57
2021/07/08 06:36:38;;;;;;;;;;;;;;;22.31;58.73;101696.56;2211102;39;113691;-56
2021/07/08 06:38:10;;;;;;;;;;;;;;;22.32;58.58;101692.59;2211061;39;113707;-56
2021/07/08 06:39:43;;;;;;;;;;;;;;;22.32;58.66;101689.78;2210818;39;113566;-56
2021/07/08 06:41:15;;;;;;;;;;;;;;;22.31;58.67;101696.56;2206622;39;114406;-56
2021/07/08 06:42:50;;;;;;;;;;;;;;;22.32;58.49;101695.41;2214475;39;114095;-56
2021/07/08 06:44:22;;;;;;;;;;;;;;;22.33;58.36;101697.09;2208256;39;113888;-57
2021/07/08 06:45:54;;;;;;;;;;;;;;;22.35;57.78;101699.63;2208637;39;113728;-55
2021/07/08 06:47:31;;;;;;;;;;;;;;;22.33;58.08;101697.09;2211717;39;114455;-57
2021/07/08 06:49:04;;;;;;;;;;;;;;;22.34;58.17;101706.38;2211028;39;114455;-56
2021/07/08 06:50:36;;;;;;;;;;;;;;;22.33;57.90;101699.91;2210936;39;113861;-56
2021/07/08 06:52:08;;;;;;;;;;;;;;;22.34;58.04;101706.38;2211006;39;114314;-55
2021/07/08 06:53:40;;;;;;;;;;;;;;;22.34;57.83;101704.41;2213664;39;113723;-56
2021/07/08 06:55:12;;;;;;;;;;;;;;;22.34;57.46;101704.41;2210259;39;115044;-56
2021/07/08 06:56:44;;;;;;;;;;;;;;;22.35;57.64;101702.44;2209989;39;115774;-57
2021/07/08 06:58:16;;;;;;;;;;;;;;;22.34;57.59;101709.22;2205956;39;114889;-56
2021/07/08 06:59:48;;;;;;;;;;;;;;;22.33;57.54;101708.38;2208266;39;115047;-56
2021/07/08 07:01:20;;;;;;;;;;;;;;;22.34;57.89;101712.03;2210704;39;114675;-56
2021/07/08 07:02:53;;;;;;;;;;;;;;;22.34;57.39;101718.50;2209968;39;114798;-56
2021/07/08 07:04:25;;;;;;;;;;;;;;;22.35;57.23;101716.53;2211079;39;114924;-56
2021/07/08 07:05:57;;;;;;;;;;;;;;;22.34;57.29;101712.03;2206205;39;114806;-56
2021/07/08 07:07:29;;;;;;;;;;;;;;;22.34;57.60;101724.13;2208772;39;114129;-56
2021/07/08 07:09:01;;;;;;;;;;;;;;;22.34;57.44;101712.03;2208321;39;114445;-56
2021/07/08 07:10:33;;;;;;;;;;;;;;;22.36;57.38;101721.00;2210844;39;114785;-56
2021/07/08 07:12:05;;;;;;;;;;;;;;;22.34;57.00;101718.50;2208893;39;115015;-56
2021/07/08 07:13:37;;;;;;;;;;;;;;;22.33;57.01;101715.97;2206157;39;114730;-56
2021/07/08 07:15:10;;;;;;;;;;;;;;;22.32;57.23;101720.75;2211621;39;114743;-56
2021/07/08 07:16:42;;;;;;;;;;;;;;;22.32;57.49;101719.91;2210789;39;115544;-57
2021/07/08 07:18:14;;;;;;;;;;;;;;;22.31;57.48;101716.25;2212002;39;115894;-56
2021/07/08 07:19:46;;;;;;;;;;;;;;;22.31;57.33;101719.06;2212438;39;115906;-56
2021/07/08 07:21:18;;;;;;;;;;;;;;;22.30;57.28;101725.88;2211594;39;115433;-55
2021/07/08 07:22:50;;;;;;;;;;;;;;;22.29;57.31;101727.00;2212874;39;115086;-56
2021/07/08 07:24:23;;;;;;;;;;;;;;;22.30;57.55;101725.03;2209639;39;116306;-56
2021/07/08 07:25:55;;;;;;;;;;;;;;;22.29;57.37;101726.16;2209443;39;115477;-56
2021/07/08 07:27:27;;;;;;;;;;;;;;;22.29;57.61;101729.81;2211771;39;115706;-56
2021/07/08 07:28:59;;;;;;;;;;;;;;;22.30;57.34;101728.69;2212084;39;115621;-56
2021/07/08 07:30:31;;;;;;;;;;;;;;;22.33;57.35;101733.69;2211015;39;115383;-56
2021/07/08 07:32:03;;;;;;;;;;;;;;;22.30;56.86;101731.50;2211747;39;115479;-56
2021/07/08 07:33:35;;;;;;;;;;;;;;;22.30;57.11;101734.31;2212072;39;115498;-55
2021/07/08 07:35:07;;;;;;;;;;;;;;;22.29;56.98;101729.81;2211950;39;115530;-56
2021/07/08 07:36:39;;;;;;;;;;;;;;;22.29;57.06;101727.00;2214372;39;116350;-57
2021/07/08 07:38:11;;;;;;;;;;;;;;;22.28;57.40;101718.84;2212120;39;114019;-56
2021/07/08 07:39:43;;;;;;;;;;;;;;;22.28;56.95;101724.47;2208501;39;114562;-56
2021/07/08 07:41:15;;;;;;;;;;;;;;;22.26;57.00;101723.97;2212116;39;113620;-56
2021/07/08 07:42:47;;;;;;;;;;;;;;;22.25;57.24;101723.13;2211878;39;113888;-56
2021/07/08 07:44:20;;;;;;;;;;;;;;;22.26;57.61;101732.41;2212137;39;113680;-56
2021/07/08 07:45:53;;;;;;;;;;;;;;;22.27;57.67;101732.09;2211833;39;113885;-56
2021/07/08 07:47:27;;;;;;;;;;;;;;;22.26;57.65;101733.22;2217545;39;114679;-56
2021/07/08 07:48:59;;;;;;;;;;;;;;;22.31;57.94;101733.16;2213122;39;113716;-56